sensor_id;sensor_type;location;lat;lon;timestamp;pressure;altitude;pressure_sealevel;temperature;humidity
69570;BME280;56781;42.292;23.146;2023-04-22T00:01:44;95274.25;;;3.26;100.00
69570;BME280;56781;42.292;23.146;2023-04-22T00:04:12;95281.16;;;3.32;100.00
69570;BME280;56781;42.292;23.146;2023-04-22T00:06:41;95262.69;;;3.58;100.00
69570;BME280;56781;42.292;23.146;2023-04-22T00:09:08;95270.69;;;3.88;100.00
69570;BME280;56781;42.292;23.146;2023-04-22T00:11:37;95242.34;;;3.84;100.00
69570;BME280;56781;42.292;23.146;2023-04-22T00:14:04;95268.84;;;4.14;100.00
69570;BME280;56781;42.292;23.146;2023-04-22T00:16:31;95262.19;;;3.76;100.00
69570;BME280;56781;42.292;23.146;2023-04-22T00:18:59;95254.72;;;3.52;100.00
69570;BME280;56781;42.292;23.146;2023-04-22T00:21:26;95251.44;;;3.15;100.00
69570;BME280;56781;42.292;23.146;2023-04-22T00:23:54;95277.25;;;2.87;100.00
69570;BME280;56781;42.292;23.146;2023-04-22T00:26:21;95257.56;;;2.25;100.00
69570;BME280;56781;42.292;23.146;2023-04-22T00:28:48;95282.28;;;2.09;100.00
69570;BME280;56781;42.292;23.146;2023-04-22T00:31:16;95290.03;;;2.20;100.00
69570;BME280;56781;42.292;23.146;2023-04-22T00:33:43;95261.00;;;2.20;100.00
69570;BME280;56781;42.292;23.146;2023-04-22T00:36:10;95278.81;;;2.40;100.00
69570;BME280;56781;42.292;23.146;2023-04-22T00:38:37;95270.13;;;2.45;100.00
69570;BME280;56781;42.292;23.146;2023-04-22T00:41:05;95274.84;;;2.38;100.00
69570;BME280;56781;42.292;23.146;2023-04-22T00:43:33;95255.13;;;2.13;100.00
69570;BME280;56781;42.292;23.146;2023-04-22T00:46:00;95279.72;;;2.19;100.00
69570;BME280;56781;42.292;23.146;2023-04-22T00:48:28;95249.94;;;1.91;100.00
69570;BME280;56781;42.292;23.146;2023-04-22T00:50:56;95256.59;;;1.99;100.00
69570;BME280;56781;42.292;23.146;2023-04-22T00:53:23;95270.28;;;2.28;100.00
69570;BME280;56781;42.292;23.146;2023-04-22T00:55:50;95286.31;;;2.54;100.00
69570;BME280;56781;42.292;23.146;2023-04-22T00:58:17;95258.94;;;2.75;100.00
69570;BME280;56781;42.292;23.146;2023-04-22T01:00:46;95254.00;;;2.89;100.00
69570;BME280;56781;42.292;23.146;2023-04-22T01:03:14;95251.31;;;2.84;100.00
69570;BME280;56781;42.292;23.146;2023-04-22T01:05:42;95254.84;;;2.47;100.00
69570;BME280;56781;42.292;23.146;2023-04-22T01:08:10;95257.59;;;2.30;100.00
69570;BME280;56781;42.292;23.146;2023-04-22T01:10:38;95264.69;;;2.25;100.00
69570;BME280;56781;42.292;23.146;2023-04-22T01:13:07;95259.97;;;2.27;100.00
69570;BME280;56781;42.292;23.146;2023-04-22T01:15:34;95263.78;;;2.46;100.00
69570;BME280;56781;42.292;23.146;2023-04-22T01:18:03;95273.19;;;2.69;100.00
69570;BME280;56781;42.292;23.146;2023-04-22T01:20:30;95262.56;;;2.21;100.00
69570;BME280;56781;42.292;23.146;2023-04-22T01:23:02;95281.28;;;1.83;100.00
69570;BME280;56781;42.292;23.146;2023-04-22T01:25:30;95277.66;;;1.94;100.00
69570;BME280;56781;42.292;23.146;2023-04-22T01:27:57;95288.44;;;2.19;100.00
69570;BME280;56781;42.292;23.146;2023-04-22T01:30:25;95269.31;;;2.39;100.00
69570;BME280;56781;42.292;23.146;2023-04-22T01:32:52;95264.59;;;2.09;100.00
69570;BME280;56781;42.292;23.146;2023-04-22T01:35:20;95274.91;;;2.11;100.00
69570;BME280;56781;42.292;23.146;2023-04-22T01:37:47;95277.50;;;2.06;100.00
69570;BME280;56781;42.292;23.146;2023-04-22T01:40:15;95289.31;;;2.30;100.00
69570;BME280;56781;42.292;23.146;2023-04-22T01:42:45;95278.16;;;2.60;100.00
69570;BME280;56781;42.292;23.146;2023-04-22T01:45:12;95273.22;;;2.32;100.00
69570;BME280;56781;42.292;23.146;2023-04-22T01:47:43;95285.56;;;1.62;100.00
69570;BME280;56781;42.292;23.146;2023-04-22T01:50:10;95300.91;;;1.43;100.00
69570;BME280;56781;42.292;23.146;2023-04-22T01:52:38;95303.91;;;1.78;100.00
69570;BME280;56781;42.292;23.146;2023-04-22T01:55:05;95282.16;;;1.93;100.00
69570;BME280;56781;42.292;23.146;2023-04-22T01:57:33;95286.28;;;2.16;100.00
69570;BME280;56781;42.292;23.146;2023-04-22T02:00:01;95277.50;;;2.06;100.00
69570;BME280;56781;42.292;23.146;2023-04-22T02:02:28;95296.28;;;2.09;100.00
69570;BME280;56781;42.292;23.146;2023-04-22T02:04:55;95299.41;;;2.06;100.00
69570;BME280;56781;42.292;23.146;2023-04-22T02:07:23;95288.16;;;1.35;100.00
69570;BME280;56781;42.292;23.146;2023-04-22T02:09:50;95278.19;;;1.37;100.00
69570;BME280;56781;42.292;23.146;2023-04-22T02:12:18;95282.28;;;1.27;100.00
69570;BME280;56781;42.292;23.146;2023-04-22T02:14:45;95274.75;;;1.36;100.00
69570;BME280;56781;42.292;23.146;2023-04-22T02:17:12;95290.69;;;1.24;100.00
69570;BME280;56781;42.292;23.146;2023-04-22T02:19:39;95291.75;;;1.23;100.00
69570;BME280;56781;42.292;23.146;2023-04-22T02:22:07;95284.19;;;0.88;100.00
69570;BME280;56781;42.292;23.146;2023-04-22T02:24:35;95298.66;;;0.85;100.00
69570;BME280;56781;42.292;23.146;2023-04-22T02:27:02;95285.47;;;0.85;100.00
69570;BME280;56781;42.292;23.146;2023-04-22T02:29:29;95281.56;;;0.88;100.00
69570;BME280;56781;42.292;23.146;2023-04-22T02:31:58;95279.81;;;1.43;100.00
69570;BME280;56781;42.292;23.146;2023-04-22T02:34:25;95294.63;;;2.03;100.00
69570;BME280;56781;42.292;23.146;2023-04-22T02:36:53;95288.38;;;2.09;100.00
69570;BME280;56781;42.292;23.146;2023-04-22T02:39:20;95303.22;;;1.88;100.00
69570;BME280;56781;42.292;23.146;2023-04-22T02:41:47;95294.59;;;1.44;100.00
69570;BME280;56781;42.292;23.146;2023-04-22T02:44:14;95287.03;;;1.25;100.00
69570;BME280;56781;42.292;23.146;2023-04-22T02:46:42;95311.66;;;1.36;100.00
69570;BME280;56781;42.292;23.146;2023-04-22T02:49:09;95310.66;;;1.64;100.00
69570;BME280;56781;42.292;23.146;2023-04-22T02:51:37;95295.38;;;1.66;100.00
69570;BME280;56781;42.292;23.146;2023-04-22T02:54:07;95283.91;;;1.28;100.00
69570;BME280;56781;42.292;23.146;2023-04-22T02:56:34;95304.13;;;1.45;100.00
69570;BME280;56781;42.292;23.146;2023-04-22T02:59:02;95287.50;;;1.98;100.00
69570;BME280;56781;42.292;23.146;2023-04-22T03:01:29;95280.56;;;2.25;100.00
69570;BME280;56781;42.292;23.146;2023-04-22T03:03:57;95292.78;;;2.36;100.00
69570;BME280;56781;42.292;23.146;2023-04-22T03:06:24;95290.25;;;2.51;100.00
69570;BME280;56781;42.292;23.146;2023-04-22T03:08:51;95280.53;;;2.62;100.00
69570;BME280;56781;42.292;23.146;2023-04-22T03:11:18;95310.53;;;2.83;100.00
69570;BME280;56781;42.292;23.146;2023-04-22T03:13:46;95307.31;;;2.76;100.00
69570;BME280;56781;42.292;23.146;2023-04-22T03:16:15;95327.88;;;2.69;100.00
69570;BME280;56781;42.292;23.146;2023-04-22T03:18:42;95296.63;;;2.55;100.00
69570;BME280;56781;42.292;23.146;2023-04-22T03:21:09;95318.19;;;2.84;100.00
69570;BME280;56781;42.292;23.146;2023-04-22T03:23:36;95298.84;;;2.74;100.00
69570;BME280;56781;42.292;23.146;2023-04-22T03:26:04;95315.84;;;2.88;100.00
69570;BME280;56781;42.292;23.146;2023-04-22T03:28:31;95300.59;;;2.58;100.00
69570;BME280;56781;42.292;23.146;2023-04-22T03:30:59;95320.28;;;2.77;100.00
69570;BME280;56781;42.292;23.146;2023-04-22T03:33:26;95303.94;;;2.43;100.00
69570;BME280;56781;42.292;23.146;2023-04-22T03:35:53;95308.72;;;2.14;100.00
69570;BME280;56781;42.292;23.146;2023-04-22T03:38:21;95295.69;;;2.02;100.00
69570;BME280;56781;42.292;23.146;2023-04-22T03:40:48;95306.13;;;2.19;100.00
69570;BME280;56781;42.292;23.146;2023-04-22T03:43:17;95308.19;;;2.49;100.00
69570;BME280;56781;42.292;23.146;2023-04-22T03:45:44;95299.75;;;2.47;100.00
69570;BME280;56781;42.292;23.146;2023-04-22T03:48:11;95308.94;;;2.39;100.00
69570;BME280;56781;42.292;23.146;2023-04-22T03:50:39;95312.47;;;2.55;100.00
69570;BME280;56781;42.292;23.146;2023-04-22T03:53:06;95333.78;;;2.81;100.00
69570;BME280;56781;42.292;23.146;2023-04-22T03:55:33;95312.16;;;2.89;100.00
69570;BME280;56781;42.292;23.146;2023-04-22T03:58:00;95345.84;;;3.14;100.00
69570;BME280;56781;42.292;23.146;2023-04-22T04:00:27;95333.44;;;3.09;100.00
69570;BME280;56781;42.292;23.146;2023-04-22T04:02:55;95345.91;;;3.24;100.00
69570;BME280;56781;42.292;23.146;2023-04-22T04:05:22;95344.16;;;3.45;100.00
69570;BME280;56781;42.292;23.146;2023-04-22T04:07:50;95318.78;;;3.54;100.00
69570;BME280;56781;42.292;23.146;2023-04-22T04:10:17;95330.50;;;3.79;100.00
69570;BME280;56781;42.292;23.146;2023-04-22T04:12:44;95353.06;;;3.97;100.00
69570;BME280;56781;42.292;23.146;2023-04-22T04:15:11;95348.22;;;3.78;100.00
69570;BME280;56781;42.292;23.146;2023-04-22T04:17:38;95344.75;;;3.68;100.00
69570;BME280;56781;42.292;23.146;2023-04-22T04:20:06;95345.34;;;3.80;100.00
69570;BME280;56781;42.292;23.146;2023-04-22T04:22:33;95342.69;;;3.75;100.00
69570;BME280;56781;42.292;23.146;2023-04-22T04:25:01;95368.63;;;3.83;100.00
69570;BME280;56781;42.292;23.146;2023-04-22T04:27:28;95349.81;;;3.80;100.00
69570;BME280;56781;42.292;23.146;2023-04-22T04:29:55;95356.53;;;4.13;100.00
69570;BME280;56781;42.292;23.146;2023-04-22T04:32:22;95371.38;;;4.39;100.00
69570;BME280;56781;42.292;23.146;2023-04-22T04:34:50;95360.28;;;4.42;100.00
69570;BME280;56781;42.292;23.146;2023-04-22T04:37:18;95357.09;;;4.46;100.00
69570;BME280;56781;42.292;23.146;2023-04-22T04:39:45;95351.75;;;4.61;100.00
69570;BME280;56781;42.292;23.146;2023-04-22T04:42:12;95360.22;;;4.94;100.00
69570;BME280;56781;42.292;23.146;2023-04-22T04:44:40;95376.63;;;5.21;100.00
69570;BME280;56781;42.292;23.146;2023-04-22T04:47:07;95366.81;;;5.27;100.00
69570;BME280;56781;42.292;23.146;2023-04-22T04:49:34;95350.56;;;5.39;100.00
69570;BME280;56781;42.292;23.146;2023-04-22T04:52:06;95373.78;;;5.77;100.00
69570;BME280;56781;42.292;23.146;2023-04-22T04:54:36;95363.63;;;6.00;100.00
69570;BME280;56781;42.292;23.146;2023-04-22T04:57:03;95367.91;;;6.35;100.00
69570;BME280;56781;42.292;23.146;2023-04-22T04:59:31;95368.72;;;6.36;100.00
69570;BME280;56781;42.292;23.146;2023-04-22T05:01:58;95379.56;;;6.79;100.00
69570;BME280;56781;42.292;23.146;2023-04-22T05:04:25;95365.22;;;7.04;100.00
69570;BME280;56781;42.292;23.146;2023-04-22T05:06:53;95383.56;;;7.05;100.00
69570;BME280;56781;42.292;23.146;2023-04-22T05:09:20;95383.59;;;7.29;100.00
69570;BME280;56781;42.292;23.146;2023-04-22T05:11:47;95384.47;;;7.73;100.00
69570;BME280;56781;42.292;23.146;2023-04-22T05:14:14;95373.34;;;7.90;98.52
69570;BME280;56781;42.292;23.146;2023-04-22T05:16:42;95395.22;;;8.49;96.71
69570;BME280;56781;42.292;23.146;2023-04-22T05:19:09;95380.44;;;8.37;95.58
69570;BME280;56781;42.292;23.146;2023-04-22T05:21:36;95364.16;;;8.91;93.10
69570;BME280;56781;42.292;23.146;2023-04-22T05:24:03;95376.22;;;9.62;90.28
69570;BME280;56781;42.292;23.146;2023-04-22T05:26:31;95356.88;;;10.79;84.47
69570;BME280;56781;42.292;23.146;2023-04-22T05:28:58;95376.50;;;11.20;81.34
69570;BME280;56781;42.292;23.146;2023-04-22T05:31:25;95384.56;;;10.75;82.70
69570;BME280;56781;42.292;23.146;2023-04-22T05:33:52;95381.94;;;11.37;79.05
69570;BME280;56781;42.292;23.146;2023-04-22T05:36:19;95370.63;;;12.55;74.90
69570;BME280;56781;42.292;23.146;2023-04-22T05:38:47;95360.72;;;13.37;71.54
69570;BME280;56781;42.292;23.146;2023-04-22T05:41:14;95366.94;;;13.76;69.89
69570;BME280;56781;42.292;23.146;2023-04-22T05:43:42;95338.59;;;14.50;67.06
69570;BME280;56781;42.292;23.146;2023-04-22T05:46:10;95364.69;;;15.13;64.28
69570;BME280;56781;42.292;23.146;2023-04-22T05:48:37;95377.81;;;14.39;66.79
69570;BME280;56781;42.292;23.146;2023-04-22T05:51:04;95377.88;;;14.51;66.18
69570;BME280;56781;42.292;23.146;2023-04-22T05:53:31;95357.06;;;16.09;60.92
69570;BME280;56781;42.292;23.146;2023-04-22T05:55:59;95376.03;;;16.62;58.64
69570;BME280;56781;42.292;23.146;2023-04-22T05:58:26;95377.75;;;15.68;62.37
69570;BME280;56781;42.292;23.146;2023-04-22T06:00:54;95362.41;;;14.69;65.76
69570;BME280;56781;42.292;23.146;2023-04-22T06:03:21;95381.25;;;14.90;65.57
69570;BME280;56781;42.292;23.146;2023-04-22T06:05:49;95369.16;;;13.74;69.27
69570;BME280;56781;42.292;23.146;2023-04-22T06:08:17;95350.44;;;13.39;71.53
69570;BME280;56781;42.292;23.146;2023-04-22T06:10:45;95354.50;;;12.90;74.53
69570;BME280;56781;42.292;23.146;2023-04-22T06:13:12;95355.00;;;13.86;71.20
69570;BME280;56781;42.292;23.146;2023-04-22T06:15:39;95381.72;;;15.38;65.07
69570;BME280;56781;42.292;23.146;2023-04-22T06:18:07;95356.94;;;15.11;63.76
69570;BME280;56781;42.292;23.146;2023-04-22T06:20:35;95355.53;;;16.61;59.53
69570;BME280;56781;42.292;23.146;2023-04-22T06:23:02;95373.47;;;17.82;57.83
69570;BME280;56781;42.292;23.146;2023-04-22T06:25:31;95368.25;;;19.57;50.99
69570;BME280;56781;42.292;23.146;2023-04-22T06:27:58;95345.53;;;20.68;47.14
69570;BME280;56781;42.292;23.146;2023-04-22T06:30:26;95353.25;;;19.86;49.03
69570;BME280;56781;42.292;23.146;2023-04-22T06:32:54;95379.19;;;18.98;48.64
69570;BME280;56781;42.292;23.146;2023-04-22T06:35:22;95369.53;;;19.20;47.11
69570;BME280;56781;42.292;23.146;2023-04-22T06:37:50;95366.78;;;20.32;45.81
69570;BME280;56781;42.292;23.146;2023-04-22T06:40:17;95371.75;;;21.13;43.79
69570;BME280;56781;42.292;23.146;2023-04-22T06:42:44;95362.84;;;20.83;42.61
69570;BME280;56781;42.292;23.146;2023-04-22T06:45:12;95351.44;;;21.78;41.93
69570;BME280;56781;42.292;23.146;2023-04-22T06:47:39;95354.97;;;22.30;39.70
69570;BME280;56781;42.292;23.146;2023-04-22T06:50:08;95325.47;;;21.95;39.46
69570;BME280;56781;42.292;23.146;2023-04-22T06:52:35;95359.38;;;20.55;41.90
69570;BME280;56781;42.292;23.146;2023-04-22T06:55:02;95346.75;;;19.48;45.00
69570;BME280;56781;42.292;23.146;2023-04-22T06:57:30;95357.75;;;18.38;46.06
69570;BME280;56781;42.292;23.146;2023-04-22T06:59:57;95354.97;;;19.71;43.24
69570;BME280;56781;42.292;23.146;2023-04-22T07:02:24;95359.94;;;21.36;41.07
69570;BME280;56781;42.292;23.146;2023-04-22T07:04:51;95367.63;;;18.82;45.02
69570;BME280;56781;42.292;23.146;2023-04-22T07:07:18;95346.47;;;19.30;45.24
69570;BME280;56781;42.292;23.146;2023-04-22T07:09:46;95358.16;;;19.34;44.70
69570;BME280;56781;42.292;23.146;2023-04-22T07:12:13;95350.81;;;19.58;47.58
69570;BME280;56781;42.292;23.146;2023-04-22T07:14:43;95352.50;;;18.81;49.33
69570;BME280;56781;42.292;23.146;2023-04-22T07:17:11;95343.72;;;18.17;48.05
69570;BME280;56781;42.292;23.146;2023-04-22T07:19:38;95352.59;;;19.27;48.58
69570;BME280;56781;42.292;23.146;2023-04-22T07:22:07;95334.72;;;19.03;48.14
69570;BME280;56781;42.292;23.146;2023-04-22T07:24:34;95359.81;;;20.08;44.82
69570;BME280;56781;42.292;23.146;2023-04-22T07:27:01;95338.94;;;19.89;45.12
69570;BME280;56781;42.292;23.146;2023-04-22T07:29:28;95350.66;;;19.93;44.69
69570;BME280;56781;42.292;23.146;2023-04-22T07:31:56;95351.03;;;19.26;46.65
69570;BME280;56781;42.292;23.146;2023-04-22T07:34:23;95348.22;;;20.37;43.17
69570;BME280;56781;42.292;23.146;2023-04-22T07:36:50;95343.31;;;20.47;43.85
69570;BME280;56781;42.292;23.146;2023-04-22T07:39:18;95339.69;;;19.20;45.54
69570;BME280;56781;42.292;23.146;2023-04-22T07:41:45;95353.66;;;20.64;44.76
69570;BME280;56781;42.292;23.146;2023-04-22T07:44:12;95348.09;;;20.87;43.22
69570;BME280;56781;42.292;23.146;2023-04-22T07:46:43;95352.25;;;20.74;43.34
69570;BME280;56781;42.292;23.146;2023-04-22T07:49:10;95358.53;;;21.12;42.26
69570;BME280;56781;42.292;23.146;2023-04-22T07:51:40;95347.59;;;19.72;44.33
69570;BME280;56781;42.292;23.146;2023-04-22T07:54:07;95358.81;;;19.27;45.45
69570;BME280;56781;42.292;23.146;2023-04-22T07:56:34;95363.69;;;20.07;44.92
69570;BME280;56781;42.292;23.146;2023-04-22T07:59:02;95343.72;;;20.22;43.99
69570;BME280;56781;42.292;23.146;2023-04-22T08:01:29;95341.03;;;20.22;45.32
69570;BME280;56781;42.292;23.146;2023-04-22T08:03:56;95331.31;;;21.49;41.54
69570;BME280;56781;42.292;23.146;2023-04-22T08:06:24;95308.94;;;20.35;44.27
69570;BME280;56781;42.292;23.146;2023-04-22T08:08:51;95345.06;;;20.92;43.91
69570;BME280;56781;42.292;23.146;2023-04-22T08:11:18;95324.63;;;21.43;43.81
69570;BME280;56781;42.292;23.146;2023-04-22T08:13:46;95333.47;;;21.74;39.01
69570;BME280;56781;42.292;23.146;2023-04-22T08:16:13;95325.94;;;21.22;40.06
69570;BME280;56781;42.292;23.146;2023-04-22T08:18:40;95317.44;;;22.17;42.27
69570;BME280;56781;42.292;23.146;2023-04-22T08:21:07;95314.53;;;23.34;39.41
69570;BME280;56781;42.292;23.146;2023-04-22T08:23:34;95334.72;;;23.12;39.46
69570;BME280;56781;42.292;23.146;2023-04-22T08:26:02;95310.81;;;22.87;38.74
69570;BME280;56781;42.292;23.146;2023-04-22T08:28:29;95316.38;;;23.09;38.28
69570;BME280;56781;42.292;23.146;2023-04-22T08:30:56;95323.13;;;23.54;39.68
69570;BME280;56781;42.292;23.146;2023-04-22T08:33:23;95329.59;;;20.66;38.77
69570;BME280;56781;42.292;23.146;2023-04-22T08:35:52;95313.03;;;21.12;40.80
69570;BME280;56781;42.292;23.146;2023-04-22T08:38:20;95298.97;;;21.44;41.43
69570;BME280;56781;42.292;23.146;2023-04-22T08:40:47;95324.31;;;20.80;39.88
69570;BME280;56781;42.292;23.146;2023-04-22T08:43:14;95313.19;;;21.67;40.16
69570;BME280;56781;42.292;23.146;2023-04-22T08:45:42;95287.66;;;21.90;39.41
69570;BME280;56781;42.292;23.146;2023-04-22T08:48:11;95313.59;;;20.61;41.20
69570;BME280;56781;42.292;23.146;2023-04-22T08:50:39;95289.28;;;21.09;41.84
69570;BME280;56781;42.292;23.146;2023-04-22T08:53:07;95290.44;;;20.74;44.67
69570;BME280;56781;42.292;23.146;2023-04-22T08:55:35;95300.84;;;19.85;42.56
69570;BME280;56781;42.292;23.146;2023-04-22T08:58:03;95282.66;;;20.46;40.46
69570;BME280;56781;42.292;23.146;2023-04-22T09:00:32;95297.53;;;21.57;39.84
69570;BME280;56781;42.292;23.146;2023-04-22T09:03:01;95283.38;;;21.41;37.66
69570;BME280;56781;42.292;23.146;2023-04-22T09:05:31;95288.78;;;21.37;37.91
69570;BME280;56781;42.292;23.146;2023-04-22T09:08:00;95272.84;;;20.38;39.24
69570;BME280;56781;42.292;23.146;2023-04-22T09:10:29;95276.31;;;21.36;38.15
69570;BME280;56781;42.292;23.146;2023-04-22T09:13:00;95274.75;;;20.04;38.68
69570;BME280;56781;42.292;23.146;2023-04-22T09:15:29;95286.31;;;20.88;38.17
69570;BME280;56781;42.292;23.146;2023-04-22T09:17:56;95289.94;;;18.93;39.22
69570;BME280;56781;42.292;23.146;2023-04-22T09:20:28;95268.53;;;20.03;34.60
69570;BME280;56781;42.292;23.146;2023-04-22T09:23:00;95280.47;;;20.86;33.41
69570;BME280;56781;42.292;23.146;2023-04-22T09:25:28;95273.47;;;19.71;37.64
69570;BME280;56781;42.292;23.146;2023-04-22T09:27:57;95281.72;;;19.78;38.04
69570;BME280;56781;42.292;23.146;2023-04-22T09:30:29;95271.16;;;19.73;44.41
69570;BME280;56781;42.292;23.146;2023-04-22T09:33:00;95270.84;;;20.31;39.83
69570;BME280;56781;42.292;23.146;2023-04-22T09:35:30;95257.97;;;19.25;46.73
69570;BME280;56781;42.292;23.146;2023-04-22T09:38:00;95272.34;;;19.49;41.50
69570;BME280;56781;42.292;23.146;2023-04-22T09:40:28;95263.25;;;19.64;41.29
69570;BME280;56781;42.292;23.146;2023-04-22T09:42:57;95270.75;;;19.71;40.87
69570;BME280;56781;42.292;23.146;2023-04-22T09:47:55;95262.03;;;20.42;38.38
69570;BME280;56781;42.292;23.146;2023-04-22T09:50:27;95230.03;;;20.28;37.11
69570;BME280;56781;42.292;23.146;2023-04-22T09:53:08;95224.44;;;19.87;35.72
69570;BME280;56781;42.292;23.146;2023-04-22T09:55:40;95212.56;;;19.72;37.10
69570;BME280;56781;42.292;23.146;2023-04-22T09:58:15;95218.50;;;20.08;37.93
69570;BME280;56781;42.292;23.146;2023-04-22T10:00:47;95224.72;;;20.39;36.51
69570;BME280;56781;42.292;23.146;2023-04-22T10:03:15;95222.38;;;20.71;37.31
69570;BME280;56781;42.292;23.146;2023-04-22T10:05:43;95201.69;;;20.63;37.90
69570;BME280;56781;42.292;23.146;2023-04-22T10:08:13;95197.94;;;20.74;35.60
69570;BME280;56781;42.292;23.146;2023-04-22T10:10:41;95202.88;;;20.01;34.55
69570;BME280;56781;42.292;23.146;2023-04-22T10:13:09;95218.47;;;19.28;36.27
69570;BME280;56781;42.292;23.146;2023-04-22T10:15:54;95195.66;;;19.10;34.40
69570;BME280;56781;42.292;23.146;2023-04-22T10:18:27;95212.25;;;19.77;36.54
69570;BME280;56781;42.292;23.146;2023-04-22T10:20:56;95178.47;;;19.75;35.51
69570;BME280;56781;42.292;23.146;2023-04-22T10:23:24;95183.94;;;19.78;33.15
69570;BME280;56781;42.292;23.146;2023-04-22T10:25:55;95180.47;;;19.81;34.77
69570;BME280;56781;42.292;23.146;2023-04-22T10:28:24;95185.72;;;20.27;37.56
69570;BME280;56781;42.292;23.146;2023-04-22T10:30:53;95185.19;;;20.48;34.50
69570;BME280;56781;42.292;23.146;2023-04-22T10:36:15;95178.25;;;20.88;33.90
69570;BME280;56781;42.292;23.146;2023-04-22T10:39:42;95185.53;;;18.83;35.80
69570;BME280;56781;42.292;23.146;2023-04-22T10:42:13;95176.50;;;19.22;34.96
69570;BME280;56781;42.292;23.146;2023-04-22T10:47:33;95158.75;;;19.05;39.55
69570;BME280;56781;42.292;23.146;2023-04-22T10:50:18;95160.22;;;19.22;34.75
69570;BME280;56781;42.292;23.146;2023-04-22T10:52:57;95149.72;;;19.47;35.48
69570;BME280;56781;42.292;23.146;2023-04-22T10:55:28;95163.56;;;19.38;32.87
69570;BME280;56781;42.292;23.146;2023-04-22T10:58:21;95137.97;;;19.39;38.16
69570;BME280;56781;42.292;23.146;2023-04-22T11:00:53;95138.91;;;19.24;36.78
69570;BME280;56781;42.292;23.146;2023-04-22T11:03:32;95158.75;;;19.28;34.88
69570;BME280;56781;42.292;23.146;2023-04-22T11:06:15;95150.75;;;19.12;34.33
69570;BME280;56781;42.292;23.146;2023-04-22T11:08:46;95139.63;;;20.01;33.28
69570;BME280;56781;42.292;23.146;2023-04-22T11:11:16;95132.00;;;20.88;35.86
69570;BME280;56781;42.292;23.146;2023-04-22T11:13:49;95144.81;;;20.88;33.75
69570;BME280;56781;42.292;23.146;2023-04-22T11:16:20;95127.50;;;21.07;32.94
69570;BME280;56781;42.292;23.146;2023-04-22T11:18:48;95105.50;;;21.33;30.30
69570;BME280;56781;42.292;23.146;2023-04-22T11:21:16;95126.81;;;20.72;34.07
69570;BME280;56781;42.292;23.146;2023-04-22T11:23:50;95141.41;;;20.98;33.27
69570;BME280;56781;42.292;23.146;2023-04-22T11:26:32;95120.69;;;21.34;32.55
69570;BME280;56781;42.292;23.146;2023-04-22T11:29:00;95137.31;;;20.74;31.28
69570;BME280;56781;42.292;23.146;2023-04-22T11:31:27;95142.63;;;21.04;33.31
69570;BME280;56781;42.292;23.146;2023-04-22T11:33:58;95130.50;;;19.86;35.30
69570;BME280;56781;42.292;23.146;2023-04-22T11:36:25;95136.53;;;18.96;36.47
69570;BME280;56781;42.292;23.146;2023-04-22T11:38:54;95134.94;;;18.29;40.03
69570;BME280;56781;42.292;23.146;2023-04-22T11:41:22;95164.28;;;18.43;40.68
69570;BME280;56781;42.292;23.146;2023-04-22T11:43:49;95130.84;;;17.97;40.13
69570;BME280;56781;42.292;23.146;2023-04-22T11:46:27;95146.94;;;18.28;39.64
69570;BME280;56781;42.292;23.146;2023-04-22T11:49:12;95156.84;;;18.82;36.01
69570;BME280;56781;42.292;23.146;2023-04-22T11:52:08;95166.13;;;19.04;43.04
69570;BME280;56781;42.292;23.146;2023-04-22T11:54:36;95155.41;;;18.69;44.94
69570;BME280;56781;42.292;23.146;2023-04-22T11:57:08;95136.09;;;18.28;48.43
69570;BME280;56781;42.292;23.146;2023-04-22T11:59:37;95144.84;;;17.47;48.38
69570;BME280;56781;42.292;23.146;2023-04-22T12:02:05;95146.28;;;17.41;49.20
69570;BME280;56781;42.292;23.146;2023-04-22T12:04:39;95136.91;;;17.19;50.40
69570;BME280;56781;42.292;23.146;2023-04-22T12:07:07;95146.84;;;17.15;49.19
69570;BME280;56781;42.292;23.146;2023-04-22T12:09:34;95164.47;;;17.09;50.69
69570;BME280;56781;42.292;23.146;2023-04-22T12:12:04;95136.72;;;16.96;49.26
69570;BME280;56781;42.292;23.146;2023-04-22T12:14:32;95141.53;;;16.87;49.32
69570;BME280;56781;42.292;23.146;2023-04-22T12:17:03;95142.25;;;16.84;50.46
69570;BME280;56781;42.292;23.146;2023-04-22T12:19:31;95155.69;;;16.80;50.58
69570;BME280;56781;42.292;23.146;2023-04-22T12:21:58;95158.22;;;17.05;49.98
69570;BME280;56781;42.292;23.146;2023-04-22T12:24:29;95159.31;;;16.88;48.02
69570;BME280;56781;42.292;23.146;2023-04-22T12:26:56;95155.13;;;17.06;47.99
69570;BME280;56781;42.292;23.146;2023-04-22T12:29:32;95133.91;;;17.24;46.69
69570;BME280;56781;42.292;23.146;2023-04-22T12:31:59;95138.75;;;16.83;48.50
69570;BME280;56781;42.292;23.146;2023-04-22T12:34:27;95126.69;;;16.65;49.22
69570;BME280;56781;42.292;23.146;2023-04-22T12:36:54;95145.47;;;16.90;47.10
69570;BME280;56781;42.292;23.146;2023-04-22T12:39:22;95152.50;;;17.26;47.56
69570;BME280;56781;42.292;23.146;2023-04-22T12:41:49;95141.50;;;17.35;46.03
69570;BME280;56781;42.292;23.146;2023-04-22T12:44:16;95131.94;;;17.05;46.87
69570;BME280;56781;42.292;23.146;2023-04-22T12:46:44;95131.13;;;16.73;47.96
69570;BME280;56781;42.292;23.146;2023-04-22T12:49:12;95156.16;;;16.70;50.62
69570;BME280;56781;42.292;23.146;2023-04-22T12:51:40;95160.75;;;16.54;49.16
69570;BME280;56781;42.292;23.146;2023-04-22T12:54:07;95152.97;;;16.36;50.96
69570;BME280;56781;42.292;23.146;2023-04-22T12:56:34;95176.88;;;16.50;56.58
69570;BME280;56781;42.292;23.146;2023-04-22T12:59:01;95154.59;;;16.25;52.46
69570;BME280;56781;42.292;23.146;2023-04-22T13:01:29;95170.63;;;16.62;49.94
69570;BME280;56781;42.292;23.146;2023-04-22T13:03:56;95168.97;;;16.73;54.80
69570;BME280;56781;42.292;23.146;2023-04-22T13:06:24;95169.91;;;16.77;55.27